Time;durP1;ratioP1;P1;durP2;ratioP2;P2;SDS_P1;SDS_P2;PMS_P1;PMS_P2;Temp;Humidity;BMP_temperature;BMP_pressure;BME280_temperature;BME280_humidity;BME280_pressure;Samples;Min_cycle;Max_cycle;Signal;HPM_P1;HPM_P2
2023/04/29 00:01:47;;;;;;;18.67;15.43;;;12.60;1.00;;;;;;4954193;28;20210;-76
2023/04/29 00:04:15;;;;;;;17.07;14.13;;;12.60;1.00;;;;;;4950424;28;20278;-74
2023/04/29 00:06:42;;;;;;;18.17;15.33;;;12.60;1.00;;;;;;4956238;28;20771;-76
2023/04/29 00:09:09;;;;;;;19.47;15.17;;;12.60;1.00;;;;;;4946376;28;20307;-75
2023/04/29 00:11:36;;;;;;;21.07;17.03;;;12.60;1.00;;;;;;4955607;28;20683;-76
2023/04/29 00:14:03;;;;;;;19.33;16.10;;;12.60;1.00;;;;;;4953331;28;20891;-76
2023/04/29 00:16:30;;;;;;;14.07;12.57;;;12.50;1.00;;;;;;4971501;28;20206;-76
2023/04/29 00:18:58;;;;;;;17.77;14.67;;;12.50;1.00;;;;;;4954583;28;20550;-76
2023/04/29 00:21:26;;;;;;;21.50;15.33;;;12.50;1.00;;;;;;4972707;28;20195;-76
2023/04/29 00:23:53;;;;;;;17.33;14.17;;;12.50;1.00;;;;;;4954633;28;20214;-75
2023/04/29 00:26:20;;;;;;;18.13;14.23;;;12.60;1.00;;;;;;4955388;28;20213;-74
2023/04/29 00:28:47;;;;;;;21.20;16.57;;;12.60;1.00;;;;;;4970331;28;20234;-77
2023/04/29 00:31:15;;;;;;;21.77;16.43;;;12.60;1.00;;;;;;4924140;29;21093;-75
2023/04/29 00:33:43;;;;;;;20.53;16.43;;;12.60;1.00;;;;;;4951272;28;20202;-75
2023/04/29 00:36:10;;;;;;;20.23;14.87;;;12.50;1.00;;;;;;4936115;29;20293;-75
2023/04/29 00:38:37;;;;;;;16.63;13.33;;;12.50;1.00;;;;;;4951689;28;20217;-75
2023/04/29 00:41:05;;;;;;;22.73;16.13;;;12.50;1.00;;;;;;4967271;28;20273;-75
2023/04/29 00:43:31;;;;;;;19.93;14.87;;;12.60;1.00;;;;;;4950037;28;20191;-76
2023/04/29 00:45:58;;;;;;;25.57;19.53;;;12.60;1.00;;;;;;4944074;28;20203;-76
2023/04/29 00:48:26;;;;;;;24.07;18.23;;;12.60;1.00;;;;;;4951531;28;20221;-76
2023/04/29 00:50:53;;;;;;;31.00;21.80;;;12.60;1.00;;;;;;4951446;28;20627;-76
2023/04/29 00:53:22;;;;;;;23.77;18.63;;;12.60;1.00;;;;;;4932563;29;20200;-76
2023/04/29 00:55:50;;;;;;;31.63;22.23;;;12.60;1.00;;;;;;4930737;29;20214;-74
2023/04/29 00:58:18;;;;;;;34.10;23.40;;;12.60;1.00;;;;;;4950158;28;20217;-76
2023/04/29 01:00:48;;;;;;;33.33;22.30;;;12.60;1.00;;;;;;4949528;28;20230;-76
2023/04/29 01:03:15;;;;;;;32.37;23.73;;;12.50;1.00;;;;;;4972312;23;20250;-64
2023/04/29 01:05:52;;;;;;;26.33;18.43;;;12.60;1.00;;;;;;4951674;28;20677;-63
2023/04/29 01:08:43;;;;;;;26.33;19.70;;;12.60;1.00;;;;;;4948951;28;20288;-63
2023/04/29 01:11:11;;;;;;;27.07;18.87;;;12.60;1.00;;;;;;4950940;28;20258;-62
2023/04/29 01:13:49;;;;;;;35.00;24.13;;;12.50;1.00;;;;;;4968684;28;20206;-61
2023/04/29 01:16:24;;;;;;;29.53;20.70;;;12.60;1.00;;;;;;4952522;28;20217;-62
2023/04/29 01:18:56;;;;;;;40.87;26.57;;;12.60;1.00;;;;;;4949825;29;20214;-63
2023/04/29 01:21:30;;;;;;;29.87;21.87;;;12.50;1.00;;;;;;4943524;28;20201;-62
2023/04/29 01:23:57;;;;;;;41.97;28.07;;;12.40;1.00;;;;;;4943138;28;20658;-62
2023/04/29 01:26:32;;;;;;;28.97;19.73;;;12.30;1.00;;;;;;4958376;28;20197;-62
2023/04/29 01:29:28;;;;;;;26.40;18.30;;;12.40;1.00;;;;;;4968025;28;20194;-62
2023/04/29 01:32:04;;;;;;;33.63;23.07;;;12.60;1.00;;;;;;4951724;28;20194;-62
2023/04/29 01:34:43;;;;;;;35.97;24.60;;;12.50;1.00;;;;;;4918370;29;20199;-63
2023/04/29 01:37:17;;;;;;;42.53;27.23;;;12.30;1.00;;;;;;4966415;28;20218;-62
2023/04/29 01:40:19;;;;;;;37.17;23.27;;;12.20;1.00;;;;;;4941802;29;20198;-62
2023/04/29 01:43:10;;;;;;;41.17;28.37;;;12.20;1.00;;;;;;4962612;28;20214;-62
2023/04/29 01:45:42;;;;;;;38.30;24.03;;;12.10;1.00;;;;;;4947367;28;20210;-63
2023/04/29 01:48:11;;;;;;;44.87;29.23;;;12.10;1.00;;;;;;4946059;28;20234;-63
2023/04/29 01:50:38;;;;;;;47.83;29.63;;;12.10;1.00;;;;;;4946596;29;20234;-63
2023/04/29 01:53:13;;;;;;;53.17;32.67;;;12.00;1.00;;;;;;4951409;28;20379;-62
2023/04/29 01:55:40;;;;;;;61.63;33.63;;;12.00;1.00;;;;;;4955544;28;20222;-62
2023/04/29 01:58:28;;;;;;;82.07;43.43;;;11.80;1.00;;;;;;4965287;28;20607;-64
2023/04/29 02:00:55;;;;;;;87.23;44.70;;;11.70;1.00;;;;;;4966014;28;20217;-63
2023/04/29 02:03:24;;;;;;;92.57;44.33;;;11.70;1.00;;;;;;4934759;28;20234;-62
2023/04/29 02:05:54;;;;;;;90.97;45.83;;;11.70;1.00;;;;;;4960349;28;20308;-62
2023/04/29 02:08:21;;;;;;;75.17;38.30;;;11.60;1.00;;;;;;4969085;28;20551;-60
2023/04/29 02:10:53;;;;;;;79.43;42.37;;;11.60;1.00;;;;;;4951107;28;20198;-61
2023/04/29 02:13:31;;;;;;;74.07;40.43;;;11.60;1.00;;;;;;4957316;28;20284;-62
2023/04/29 02:16:09;;;;;;;57.17;32.70;;;11.60;1.00;;;;;;4950895;28;20220;-62
2023/04/29 02:18:42;;;;;;;71.27;39.17;;;11.70;1.00;;;;;;4964679;28;20218;-62
2023/04/29 02:21:09;;;;;;;57.03;34.23;;;11.70;1.00;;;;;;4958365;28;20198;-62
2023/04/29 02:23:36;;;;;;;66.33;38.17;;;11.60;1.00;;;;;;4947136;28;20221;-63
2023/04/29 02:26:08;;;;;;;66.60;38.20;;;11.50;1.00;;;;;;4965424;28;20289;-63
2023/04/29 02:28:35;;;;;;;64.37;35.73;;;11.60;1.00;;;;;;4953793;28;20225;-62
2023/04/29 02:31:03;;;;;;;58.13;33.83;;;11.50;1.00;;;;;;4950415;28;20756;-63
2023/04/29 02:33:31;;;;;;;58.40;34.80;;;11.50;1.00;;;;;;4950450;28;20594;-63
2023/04/29 02:35:58;;;;;;;51.87;32.60;;;11.60;1.00;;;;;;4967826;28;20213;-63
2023/04/29 02:38:25;;;;;;;55.77;33.47;;;11.70;1.00;;;;;;4943250;28;20191;-63
2023/04/29 02:40:52;;;;;;;61.90;35.97;;;11.50;1.00;;;;;;4968571;28;20621;-63
2023/04/29 02:43:20;;;;;;;59.60;34.73;;;11.40;1.00;;;;;;4954483;28;20195;-63
2023/04/29 02:45:47;;;;;;;61.07;36.07;;;11.30;1.00;;;;;;4951472;28;20664;-63
2023/04/29 02:48:15;;;;;;;57.10;32.40;;;11.30;1.00;;;;;;4950346;28;20293;-63
2023/04/29 02:50:43;;;;;;;55.97;30.93;;;11.30;1.00;;;;;;4950294;28;20744;-63
2023/04/29 02:53:10;;;;;;;51.63;28.47;;;11.20;1.00;;;;;;4966907;28;20483;-64
2023/04/29 02:55:37;;;;;;;51.80;29.27;;;11.20;1.00;;;;;;4951525;28;20202;-64
2023/04/29 02:58:07;;;;;;;51.60;27.87;;;11.20;1.00;;;;;;4967836;28;20205;-64
2023/04/29 03:00:35;;;;;;;44.80;26.27;;;11.20;1.00;;;;;;4965448;28;20213;-64
2023/04/29 03:03:02;;;;;;;45.50;27.13;;;11.20;1.00;;;;;;4959219;28;20607;-62
2023/04/29 03:05:29;;;;;;;46.83;26.87;;;11.10;1.00;;;;;;4939133;29;20683;-63
2023/04/29 03:07:56;;;;;;;47.03;26.73;;;11.00;1.00;;;;;;4951593;29;20210;-63
2023/04/29 03:10:23;;;;;;;46.13;26.70;;;11.20;1.00;;;;;;4944685;29;20255;-63
2023/04/29 03:12:50;;;;;;;40.60;24.50;;;11.10;1.00;;;;;;4940060;29;20663;-63
2023/04/29 03:15:18;;;;;;;43.77;25.50;;;11.10;1.00;;;;;;4944570;29;20696;-63
2023/04/29 03:17:45;;;;;;;45.17;24.07;;;11.20;1.00;;;;;;4946192;29;20730;-62
2023/04/29 03:20:13;;;;;;;41.87;24.53;;;11.10;1.00;;;;;;4934053;29;20204;-63
2023/04/29 03:22:40;;;;;;;48.00;28.97;;;11.10;1.00;;;;;;4934683;29;20274;-63
2023/04/29 03:25:09;;;;;;;50.00;28.73;;;11.10;1.00;;;;;;4940610;29;20202;-62
2023/04/29 03:27:38;;;;;;;45.63;26.43;;;11.20;1.00;;;;;;4952227;28;20725;-63
2023/04/29 03:30:06;;;;;;;38.33;24.27;;;11.30;1.00;;;;;;4942144;29;20592;-64
2023/04/29 03:32:36;;;;;;;42.57;26.93;;;11.40;1.00;;;;;;4944964;29;20212;-64
2023/04/29 03:35:04;;;;;;;37.73;23.90;;;11.60;1.00;;;;;;4945206;29;20215;-63
2023/04/29 03:37:36;;;;;;;32.30;20.90;;;11.60;1.00;;;;;;4936917;29;20254;-64
2023/04/29 03:40:26;;;;;;;34.90;22.17;;;11.70;1.00;;;;;;4953404;28;20278;-64
2023/04/29 03:42:53;;;;;;;34.73;23.67;;;11.70;1.00;;;;;;4952113;29;20215;-64
2023/04/29 03:45:20;;;;;;;30.60;21.33;;;11.70;1.00;;;;;;4951938;29;20199;-62
2023/04/29 03:47:48;;;;;;;37.33;23.73;;;11.60;1.00;;;;;;4951574;29;20257;-63
2023/04/29 03:50:15;;;;;;;35.17;22.87;;;11.50;1.00;;;;;;4952057;29;20194;-63
2023/04/29 03:52:42;;;;;;;32.23;21.67;;;11.60;1.00;;;;;;4947065;29;20285;-64
2023/04/29 03:55:13;;;;;;;32.53;21.70;;;11.70;1.00;;;;;;4952126;29;20202;-64
2023/04/29 03:57:41;;;;;;;32.40;22.17;;;11.70;1.00;;;;;;4951489;28;20690;-63
2023/04/29 04:00:10;;;;;;;35.37;22.83;;;11.60;1.00;;;;;;4947512;29;20229;-62
2023/04/29 04:02:43;;;;;;;35.60;24.40;;;11.50;1.00;;;;;;4947524;28;20567;-63
2023/04/29 04:05:11;;;;;;;36.10;24.37;;;11.40;1.00;;;;;;4944559;28;20226;-63
2023/04/29 04:07:42;;;;;;;39.27;25.60;;;11.40;1.00;;;;;;4950626;29;20290;-62
2023/04/29 04:10:28;;;;;;;41.03;25.00;;;11.20;1.00;;;;;;4952807;29;20210;-62
2023/04/29 04:13:00;;;;;;;38.63;26.17;;;11.30;1.00;;;;;;4951648;29;20217;-62
2023/04/29 04:15:27;;;;;;;35.83;24.70;;;11.30;1.00;;;;;;4951620;29;20211;-62
2023/04/29 04:17:56;;;;;;;39.97;26.40;;;11.40;1.00;;;;;;4949478;28;20645;-62
2023/04/29 04:20:23;;;;;;;42.30;27.30;;;11.40;1.00;;;;;;4951109;29;20245;-62
2023/04/29 04:22:50;;;;;;;42.73;28.37;;;11.40;1.00;;;;;;4950901;29;20214;-63
2023/04/29 04:25:24;;;;;;;41.10;27.67;;;11.30;1.00;;;;;;4951235;29;20203;-62
2023/04/29 04:27:54;;;;;;;45.73;29.63;;;11.30;1.00;;;;;;4943977;29;20211;-62
2023/04/29 04:30:31;;;;;;;42.53;28.53;;;11.30;1.00;;;;;;4950215;29;20297;-62
2023/04/29 04:32:58;;;;;;;43.17;29.83;;;11.30;1.00;;;;;;4950802;29;20207;-62
2023/04/29 04:35:26;;;;;;;45.57;29.37;;;11.20;1.00;;;;;;4951142;29;20207;-62
2023/04/29 04:37:52;;;;;;;45.67;30.27;;;11.10;1.00;;;;;;4952060;29;20217;-62
2023/04/29 04:40:20;;;;;;;47.93;31.43;;;11.20;1.00;;;;;;4952157;28;20195;-62
2023/04/29 04:43:07;;;;;;;48.10;31.60;;;11.10;1.00;;;;;;4952132;29;20198;-64
2023/04/29 04:45:38;;;;;;;47.97;30.57;;;11.10;1.00;;;;;;4950943;29;20207;-63
2023/04/29 04:48:05;;;;;;;50.07;32.27;;;11.10;1.00;;;;;;4950016;29;20231;-63
2023/04/29 04:50:35;;;;;;;43.13;28.67;;;11.00;1.00;;;;;;4947851;28;20707;-62
2023/04/29 04:53:02;;;;;;;47.37;30.70;;;11.20;1.00;;;;;;4950003;29;20282;-63
2023/04/29 04:55:42;;;;;;;44.00;29.73;;;11.30;1.00;;;;;;4950549;29;20203;-63
2023/04/29 04:58:09;;;;;;;44.43;31.83;;;11.20;1.00;;;;;;4950345;29;20211;-64
2023/04/29 05:00:37;;;;;;;46.20;30.50;;;11.20;1.00;;;;;;4951920;28;20699;-65
2023/04/29 05:03:04;;;;;;;43.10;31.43;;;11.20;1.00;;;;;;4950343;28;20213;-63
2023/04/29 05:05:34;;;;;;;44.73;32.63;;;11.10;1.00;;;;;;4953502;28;20214;-63
2023/04/29 05:08:02;;;;;;;40.87;27.87;;;11.10;1.00;;;;;;4953793;28;20504;-65
2023/04/29 05:10:36;;;;;;;46.53;32.03;;;11.20;1.00;;;;;;4952013;28;20206;-62
2023/04/29 05:13:05;;;;;;;42.13;28.27;;;11.10;1.00;;;;;;4950924;28;20202;-62
2023/04/29 05:15:34;;;;;;;45.50;32.03;;;11.20;1.00;;;;;;4951395;28;20241;-62
2023/04/29 05:18:02;;;;;;;45.77;32.20;;;11.20;1.00;;;;;;4951819;28;20218;-63
2023/04/29 05:20:30;;;;;;;44.47;30.73;;;11.20;1.00;;;;;;4949765;28;20287;-63
2023/04/29 05:22:59;;;;;;;46.93;31.33;;;11.30;1.00;;;;;;4951652;28;20253;-62
2023/04/29 05:25:28;;;;;;;45.70;32.30;;;11.20;1.00;;;;;;4951433;28;20273;-62
2023/04/29 05:27:55;;;;;;;43.17;32.13;;;11.20;1.00;;;;;;4965677;28;20538;-62
2023/04/29 05:30:24;;;;;;;39.63;31.43;;;11.20;1.00;;;;;;4960863;28;20740;-65
2023/04/29 05:32:51;;;;;;;38.77;27.83;;;11.20;1.00;;;;;;4958641;28;20293;-63
2023/04/29 05:35:21;;;;;;;41.70;30.80;;;11.40;1.00;;;;;;4969412;28;20198;-62
2023/04/29 05:37:48;;;;;;;41.40;29.17;;;11.40;1.00;;;;;;4959421;28;20214;-63
2023/04/29 05:40:30;;;;;;;42.77;30.00;;;11.30;1.00;;;;;;4944454;28;20202;-65
2023/04/29 05:43:26;;;;;;;39.53;29.17;;;11.20;1.00;;;;;;4957258;28;20195;-63
2023/04/29 05:45:55;;;;;;;40.20;28.57;;;11.20;1.00;;;;;;4950018;28;20205;-62
2023/04/29 05:48:23;;;;;;;39.60;29.83;;;11.20;1.00;;;;;;4962024;28;20619;-62
2023/04/29 05:50:52;;;;;;;41.77;29.90;;;11.10;1.00;;;;;;4951989;28;20226;-62
2023/04/29 05:53:19;;;;;;;40.60;29.40;;;11.10;1.00;;;;;;4963282;28;20700;-65
2023/04/29 05:55:49;;;;;;;39.97;26.97;;;11.10;1.00;;;;;;4969326;28;20214;-63
2023/04/29 05:58:19;;;;;;;42.30;30.57;;;11.20;1.00;;;;;;4958023;28;20277;-64
2023/04/29 06:00:48;;;;;;;41.63;29.50;;;11.20;1.00;;;;;;4969169;28;20225;-62
2023/04/29 06:03:20;;;;;;;36.57;28.97;;;11.20;1.00;;;;;;4967853;28;20210;-62
2023/04/29 06:05:54;;;;;;;41.10;28.20;;;11.20;1.00;;;;;;4952180;28;20592;-62
2023/04/29 06:08:38;;;;;;;40.33;30.20;;;11.20;1.00;;;;;;4953756;28;20748;-62
2023/04/29 06:11:18;;;;;;;43.47;29.50;;;11.10;1.00;;;;;;4956855;28;20260;-62
2023/04/29 06:13:45;;;;;;;43.37;32.00;;;11.00;1.00;;;;;;4970198;28;20190;-64
2023/04/29 06:16:14;;;;;;;44.13;31.30;;;10.90;1.00;;;;;;4969131;28;20551;-62
2023/04/29 06:18:41;;;;;;;44.63;32.60;;;10.90;1.00;;;;;;4969500;28;20221;-63
2023/04/29 06:21:08;;;;;;;40.70;30.07;;;10.90;1.00;;;;;;4958704;28;20203;-63
2023/04/29 06:23:35;;;;;;;46.10;31.17;;;11.00;1.00;;;;;;4957086;28;20270;-63
2023/04/29 06:26:09;;;;;;;44.50;30.73;;;11.00;1.00;;;;;;4948046;28;20202;-63
2023/04/29 06:28:36;;;;;;;46.13;31.80;;;11.10;1.00;;;;;;4961790;28;20260;-63
2023/04/29 06:31:04;;;;;;;41.63;31.23;;;11.00;1.00;;;;;;4952482;28;20218;-65
2023/04/29 06:33:32;;;;;;;44.20;30.10;;;11.00;1.00;;;;;;4948359;28;20253;-63
2023/04/29 06:35:59;;;;;;;41.50;30.83;;;11.00;1.00;;;;;;4952497;28;20207;-63
2023/04/29 06:38:42;;;;;;;45.37;29.17;;;11.00;1.00;;;;;;4967364;28;20700;-60
2023/04/29 06:41:27;;;;;;;39.90;30.23;;;11.00;1.00;;;;;;4961011;28;20217;-60
2023/04/29 06:44:00;;;;;;;44.10;31.13;;;10.90;1.00;;;;;;4964525;28;20214;-61
2023/04/29 06:46:56;;;;;;;39.70;30.13;;;10.90;1.00;;;;;;4956571;28;20237;-61
2023/04/29 06:49:42;;;;;;;40.40;28.17;;;11.00;1.00;;;;;;4969675;28;20217;-60
2023/04/29 06:52:09;;;;;;;50.90;33.70;;;10.90;1.00;;;;;;4965323;28;20329;-60
2023/04/29 06:54:37;;;;;;;49.23;32.10;;;10.80;1.00;;;;;;4960024;28;20611;-60
2023/04/29 06:57:04;;;;;;;48.80;33.17;;;10.90;1.00;;;;;;4956518;28;20241;-62
2023/04/29 06:59:31;;;;;;;43.50;31.60;;;10.80;1.00;;;;;;4969425;28;20183;-62
2023/04/29 07:01:58;;;;;;;42.03;30.13;;;10.80;1.00;;;;;;4969289;28;20201;-61
2023/04/29 07:04:25;;;;;;;45.80;30.67;;;10.80;1.00;;;;;;4967918;28;20709;-62
2023/04/29 07:06:53;;;;;;;44.30;29.93;;;10.80;1.00;;;;;;4968539;28;20201;-61
2023/04/29 07:09:20;;;;;;;46.10;31.67;;;10.80;1.00;;;;;;4956625;28;20780;-61
2023/04/29 07:11:47;;;;;;;43.73;30.37;;;10.90;1.00;;;;;;4966199;28;20620;-61
2023/04/29 07:14:14;;;;;;;41.27;29.50;;;10.90;1.00;;;;;;4969873;28;20281;-62
2023/04/29 07:16:40;;;;;;;40.83;27.27;;;10.90;1.00;;;;;;4967728;28;20198;-60
2023/04/29 07:19:09;;;;;;;37.37;28.50;;;11.00;1.00;;;;;;4955029;28;20183;-60
2023/04/29 07:21:36;;;;;;;40.63;29.83;;;11.00;1.00;;;;;;4966279;28;20214;-59
2023/04/29 07:24:04;;;;;;;36.30;25.37;;;11.00;1.00;;;;;;4951001;28;20220;-61
2023/04/29 07:26:31;;;;;;;38.67;28.37;;;11.10;1.00;;;;;;4967854;28;20199;-60
2023/04/29 07:28:58;;;;;;;35.17;24.40;;;11.20;1.00;;;;;;4950734;28;20253;-61
2023/04/29 07:31:25;;;;;;;36.83;27.43;;;11.30;1.00;;;;;;4950738;28;20886;-62
2023/04/29 07:33:54;;;;;;;39.83;26.33;;;11.20;1.00;;;;;;4950847;28;20737;-61
2023/04/29 07:36:21;;;;;;;33.07;25.83;;;11.20;1.00;;;;;;4951477;28;20576;-61
2023/04/29 07:38:48;;;;;;;39.53;27.40;;;11.20;1.00;;;;;;4948457;28;20304;-62
2023/04/29 07:41:15;;;;;;;37.97;28.10;;;11.10;1.00;;;;;;4948712;28;20682;-62
2023/04/29 07:43:42;;;;;;;37.40;24.93;;;11.00;1.00;;;;;;4958433;28;20222;-63
2023/04/29 07:46:09;;;;;;;39.77;29.13;;;11.10;1.00;;;;;;4950415;28;20238;-64
2023/04/29 07:48:40;;;;;;;34.43;26.80;;;11.10;1.00;;;;;;4950724;28;20202;-62
2023/04/29 07:51:13;;;;;;;37.83;29.00;;;11.10;1.00;;;;;;4952118;28;20226;-61
2023/04/29 07:53:42;;;;;;;41.57;28.47;;;11.20;1.00;;;;;;4972072;28;20205;-61
2023/04/29 07:56:09;;;;;;;31.60;23.40;;;11.20;1.00;;;;;;4960255;28;20209;-65
2023/04/29 07:58:36;;;;;;;42.83;30.50;;;11.20;1.00;;;;;;4954465;28;20718;-62
2023/04/29 08:01:08;;;;;;;39.07;29.23;;;11.30;1.00;;;;;;4972376;28;20190;-60
2023/04/29 08:03:36;;;;;;;45.83;30.00;;;11.40;1.00;;;;;;4950217;28;20235;-61
2023/04/29 08:06:07;;;;;;;33.70;24.13;;;11.40;1.00;;;;;;4951640;29;20205;-64
2023/04/29 08:08:35;;;;;;;39.20;28.90;;;11.40;1.00;;;;;;4950905;29;20630;-64
2023/04/29 08:11:02;;;;;;;32.10;24.73;;;11.70;1.00;;;;;;4953339;28;20195;-64
2023/04/29 08:13:29;;;;;;;39.80;29.53;;;11.80;1.00;;;;;;4950898;29;20519;-64
2023/04/29 08:15:56;;;;;;;38.03;28.33;;;11.80;1.00;;;;;;4951558;29;20211;-65
2023/04/29 08:18:23;;;;;;;53.90;43.70;;;11.80;1.00;;;;;;4951800;29;20302;-64
2023/04/29 08:20:50;;;;;;;43.10;33.47;;;11.90;1.00;;;;;;4950879;29;20282;-63
2023/04/29 08:23:17;;;;;;;42.17;30.40;;;11.90;1.00;;;;;;4951105;29;20206;-64
2023/04/29 08:25:44;;;;;;;41.77;34.67;;;11.90;1.00;;;;;;4952867;29;20199;-61
2023/04/29 08:28:11;;;;;;;41.17;31.83;;;12.20;1.00;;;;;;4950676;29;20655;-64
2023/04/29 08:30:41;;;;;;;40.07;29.60;;;12.20;1.00;;;;;;4948216;28;20199;-65
2023/04/29 08:33:08;;;;;;;38.33;31.87;;;12.20;1.00;;;;;;4951364;28;20302;-63
2023/04/29 08:35:38;;;;;;;33.20;28.77;;;12.40;1.00;;;;;;4948680;29;20196;-63
2023/04/29 08:38:06;;;;;;;39.40;33.17;;;12.60;1.00;;;;;;4949563;29;20329;-63
2023/04/29 08:40:42;;;;;;;41.03;32.00;;;12.80;1.00;;;;;;4932886;29;20558;-63
2023/04/29 08:43:09;;;;;;;34.07;26.30;;;13.20;1.00;;;;;;4949157;29;20226;-61
2023/04/29 08:45:38;;;;;;;33.40;29.80;;;13.40;1.00;;;;;;4950609;29;20241;-61
2023/04/29 08:48:09;;;;;;;24.57;21.67;;;13.40;1.00;;;;;;4949859;29;20226;-62
2023/04/29 08:50:39;;;;;;;27.25;21.45;;;13.60;1.00;;;;;;4950408;29;20325;-61
2023/04/29 08:53:07;;;;;;;27.55;22.10;;;13.90;1.00;;;;;;4951428;28;20226;-62
2023/04/29 08:55:37;;;;;;;21.17;16.88;;;14.10;1.00;;;;;;4949774;29;20203;-61
2023/04/29 08:58:04;;;;;;;23.40;20.38;;;14.50;1.00;;;;;;4950337;29;20218;-65
2023/04/29 09:00:31;;;;;;;19.50;16.73;;;14.70;1.00;;;;;;4951928;29;20274;-62
2023/04/29 09:03:01;;;;;;;25.52;21.30;;;15.10;1.00;;;;;;4950628;28;20222;-62
2023/04/29 09:05:29;;;;;;;25.65;21.40;;;15.30;1.00;;;;;;4971031;28;20291;-63
2023/04/29 09:08:02;;;;;;;24.98;21.98;;;15.50;1.00;;;;;;4953437;28;20667;-62
2023/04/29 09:10:29;;;;;;;21.88;18.30;;;15.50;1.00;;;;;;4970266;28;20217;-61
2023/04/29 09:13:00;;;;;;;20.50;16.95;;;15.80;1.00;;;;;;4951639;28;20688;-63
2023/04/29 09:15:27;;;;;;;18.13;16.00;;;15.90;1.00;;;;;;4964954;28;20601;-63
2023/04/29 09:17:54;;;;;;;22.70;18.73;;;15.80;1.00;;;;;;4952856;28;20304;-62
2023/04/29 09:20:21;;;;;;;21.45;18.55;;;15.80;1.00;;;;;;4969031;28;20674;-65
2023/04/29 09:22:50;;;;;;;25.33;21.92;;;15.90;1.00;;;;;;4933087;28;20187;-63
2023/04/29 09:25:17;;;;;;;24.55;17.65;;;15.80;1.00;;;;;;4970726;28;20220;-63
2023/04/29 09:27:44;;;;;;;22.80;20.00;;;15.90;1.00;;;;;;4955389;28;20206;-63
2023/04/29 09:30:14;;;;;;;21.50;16.88;;;15.90;1.00;;;;;;4935803;28;20526;-63
2023/04/29 09:32:43;;;;;;;18.83;16.20;;;16.10;1.00;;;;;;4952226;28;20682;-63
2023/04/29 09:35:24;;;;;;;18.77;16.67;;;16.40;1.00;;;;;;4953529;28;20274;-63
2023/04/29 09:37:54;;;;;;;15.60;13.88;;;16.80;1.00;;;;;;4960400;28;20214;-63
2023/04/29 09:40:29;;;;;;;19.88;16.20;;;17.20;1.00;;;;;;4970613;28;20241;-63
2023/04/29 09:42:57;;;;;;;18.60;14.38;;;17.70;1.00;;;;;;4969902;28;20204;-65
2023/04/29 09:45:38;;;;;;;20.27;17.27;;;17.80;1.00;;;;;;4949434;28;20198;-63
2023/04/29 09:48:07;;;;;;;20.45;15.60;;;17.40;1.00;;;;;;4969350;28;20741;-63
2023/04/29 09:50:38;;;;;;;20.83;18.10;;;16.80;1.00;;;;;;4952579;28;20896;-63
2023/04/29 09:53:08;;;;;;;19.48;17.38;;;16.60;1.00;;;;;;4960373;28;20605;-63
2023/04/29 09:55:36;;;;;;;22.23;16.42;;;16.70;1.00;;;;;;4951570;28;20236;-63
2023/04/29 09:58:03;;;;;;;17.45;15.50;;;16.80;1.00;;;;;;4969962;28;20202;-64
2023/04/29 10:00:32;;;;;;;21.63;18.60;;;17.00;1.00;;;;;;4970094;28;20201;-63
2023/04/29 10:03:00;;;;;;;17.60;15.60;;;17.00;1.00;;;;;;4951664;28;20273;-65
2023/04/29 10:05:31;;;;;;;22.02;18.27;;;17.50;1.00;;;;;;4970158;28;20309;-63
2023/04/29 10:07:59;;;;;;;17.67;14.85;;;18.10;1.00;;;;;;4952551;28;20245;-63
2023/04/29 10:10:28;;;;;;;19.02;16.35;;;18.50;1.00;;;;;;4953378;28;20658;-64
2023/04/29 10:13:00;;;;;;;23.33;18.48;;;18.20;1.00;;;;;;4969536;28;20202;-63
2023/04/29 10:15:48;;;;;;;19.00;17.00;;;17.90;1.00;;;;;;4968691;28;20186;-63
2023/04/29 10:18:20;;;;;;;25.33;16.83;;;17.60;1.00;;;;;;4964044;28;20926;-65
2023/04/29 10:20:48;;;;;;;17.98;14.85;;;17.70;1.00;;;;;;4964668;28;20631;-63
2023/04/29 10:23:18;;;;;;;21.23;15.45;;;17.80;1.00;;;;;;4961831;28;20203;-63
2023/04/29 10:25:47;;;;;;;19.52;16.50;;;18.00;1.00;;;;;;4970315;28;20210;-64
2023/04/29 10:28:16;;;;;;;20.52;18.38;;;17.70;1.00;;;;;;4952834;28;20236;-65
2023/04/29 10:30:44;;;;;;;20.92;18.35;;;17.40;1.00;;;;;;4955703;28;20261;-64
2023/04/29 10:33:15;;;;;;;19.85;17.50;;;17.30;1.00;;;;;;4969716;28;20201;-63
2023/04/29 10:35:43;;;;;;;20.90;15.07;;;17.50;1.00;;;;;;4967432;28;20198;-63
2023/04/29 10:38:27;;;;;;;19.95;16.23;;;17.50;1.00;;;;;;4960473;28;20217;-63
2023/04/29 10:40:57;;;;;;;20.08;15.48;;;17.30;1.00;;;;;;4968739;28;20551;-64
2023/04/29 10:43:25;;;;;;;19.27;17.25;;;17.40;1.00;;;;;;4968224;28;20929;-63
2023/04/29 10:46:27;;;;;;;19.35;16.88;;;16.70;1.00;;;;;;4968749;28;20286;-63
2023/04/29 10:49:02;;;;;;;20.45;16.30;;;17.10;1.00;;;;;;4969313;28;20237;-64
2023/04/29 10:51:31;;;;;;;18.75;15.43;;;17.30;1.00;;;;;;4969699;28;20721;-64
2023/04/29 10:54:06;;;;;;;18.63;15.70;;;17.40;1.00;;;;;;4968978;28;20237;-63
2023/04/29 10:56:37;;;;;;;17.42;15.18;;;17.30;1.00;;;;;;4968218;28;20711;-63
2023/04/29 10:59:04;;;;;;;19.17;15.07;;;16.80;1.00;;;;;;4968533;28;20218;-63
2023/04/29 11:01:52;;;;;;;20.60;15.93;;;17.10;1.00;;;;;;4968312;28;20619;-64
2023/04/29 11:04:20;;;;;;;19.02;14.38;;;17.50;1.00;;;;;;4967828;28;20262;-63
2023/04/29 11:06:57;;;;;;;21.25;13.98;;;17.80;1.00;;;;;;4969701;28;20199;-62
2023/04/29 11:09:27;;;;;;;16.10;13.82;;;18.30;1.00;;;;;;4968153;28;20213;-63
2023/04/29 11:12:02;;;;;;;20.75;15.75;;;18.50;1.00;;;;;;4952126;28;20246;-62
2023/04/29 11:14:35;;;;;;;19.70;16.10;;;17.70;1.00;;;;;;4964273;28;20198;-63
2023/04/29 11:17:08;;;;;;;18.40;15.52;;;17.40;1.00;;;;;;4960344;28;20219;-63
2023/04/29 11:19:40;;;;;;;17.77;15.10;;;17.90;1.00;;;;;;4963548;28;20206;-64
2023/04/29 11:22:11;;;;;;;15.43;13.75;;;18.00;1.00;;;;;;4969618;28;20245;-65
2023/04/29 11:24:59;;;;;;;16.45;14.13;;;18.30;1.00;;;;;;4965089;28;20277;-64
2023/04/29 11:27:33;;;;;;;16.60;14.77;;;18.50;1.00;;;;;;4962509;28;20206;-64
2023/04/29 11:30:03;;;;;;;18.05;16.02;;;18.50;1.00;;;;;;4961651;28;20765;-65
2023/04/29 11:32:35;;;;;;;15.80;13.45;;;18.50;1.00;;;;;;4948627;28;20627;-63
2023/04/29 11:35:14;;;;;;;14.73;12.82;;;18.20;1.00;;;;;;4956156;28;20696;-64
2023/04/29 11:37:44;;;;;;;19.55;12.50;;;18.60;1.00;;;;;;4956172;28;20198;-62
2023/04/29 11:40:12;;;;;;;18.23;13.88;;;18.90;1.00;;;;;;4965588;28;20289;-63
2023/04/29 11:42:47;;;;;;;17.58;15.38;;;19.00;1.00;;;;;;4970788;28;20194;-62
2023/04/29 11:45:16;;;;;;;16.90;15.05;;;19.20;1.00;;;;;;4949754;28;20201;-63
2023/04/29 11:47:45;;;;;;;18.80;15.98;;;19.20;1.00;;;;;;4950024;28;20640;-62
2023/04/29 11:50:15;;;;;;;16.95;14.13;;;19.20;1.00;;;;;;4979135;28;20197;-62
2023/04/29 11:52:45;;;;;;;17.88;13.27;;;19.50;1.00;;;;;;4977564;28;20585;-63
2023/04/29 11:55:13;;;;;;;18.73;14.43;;;19.50;1.00;;;;;;4976490;28;20701;-63
2023/04/29 11:57:40;;;;;;;18.80;14.07;;;19.40;1.00;;;;;;4976584;28;20220;-62
2023/04/29 12:00:12;;;;;;;19.80;13.73;;;19.30;1.00;;;;;;4979464;28;20780;-64
2023/04/29 12:02:43;;;;;;;16.10;12.20;;;19.20;1.00;;;;;;4961936;28;20190;-64
2023/04/29 12:05:11;;;;;;;21.38;13.98;;;19.00;1.00;;;;;;4957517;28;20229;-63
2023/04/29 12:07:39;;;;;;;17.77;13.20;;;18.70;1.00;;;;;;4976286;28;20206;-63
2023/04/29 12:10:10;;;;;;;17.83;13.70;;;18.70;1.00;;;;;;4971691;28;20206;-64
2023/04/29 12:12:42;;;;;;;18.20;14.57;;;18.20;1.00;;;;;;4953383;28;20201;-65
2023/04/29 12:15:11;;;;;;;20.88;18.65;;;17.70;1.00;;;;;;4970412;28;20201;-64
2023/04/29 12:17:39;;;;;;;15.63;13.90;;;17.20;1.00;;;;;;4962064;28;20210;-63
2023/04/29 12:20:09;;;;;;;19.85;17.00;;;16.90;1.00;;;;;;4955830;28;20210;-63
2023/04/29 12:22:37;;;;;;;17.42;13.07;;;16.60;1.00;;;;;;4971211;28;20195;-64
2023/04/29 12:25:05;;;;;;;31.42;16.17;;;16.50;1.00;;;;;;4971385;28;20229;-63
2023/04/29 12:27:33;;;;;;;15.40;11.93;;;16.20;1.00;;;;;;4951990;28;20183;-64
2023/04/29 12:30:00;;;;;;;18.17;15.13;;;16.10;1.00;;;;;;4967434;28;20194;-63
2023/04/29 12:32:27;;;;;;;16.20;13.35;;;16.20;1.00;;;;;;4950277;28;20622;-63
2023/04/29 12:34:55;;;;;;;18.95;13.50;;;16.00;1.00;;;;;;4960854;28;20297;-64
2023/04/29 12:37:22;;;;;;;20.13;14.85;;;16.20;1.00;;;;;;4967396;28;20198;-64
2023/04/29 12:39:50;;;;;;;17.17;13.30;;;16.20;1.00;;;;;;4951003;28;20214;-66
2023/04/29 12:42:17;;;;;;;17.48;13.65;;;16.50;1.00;;;;;;4950053;28;20202;-63
2023/04/29 12:44:46;;;;;;;17.88;13.85;;;16.50;1.00;;;;;;4970707;28;20198;-63
2023/04/29 12:47:14;;;;;;;16.80;12.75;;;16.50;1.00;;;;;;4970464;28;20198;-64
2023/04/29 12:49:46;;;;;;;42.22;15.38;;;16.90;1.00;;;;;;4970745;28;20202;-64
2023/04/29 12:52:14;;;;;;;18.58;12.90;;;17.10;1.00;;;;;;4971166;28;20714;-64